Time;durP1;ratioP1;P1;durP2;ratioP2;P2;SDS_P1;SDS_P2;PMS_P1;PMS_P2;Temp;Humidity;BMP_temperature;BMP_pressure;BME280_temperature;BME280_humidity;BME280_pressure;Samples;Min_cycle;Max_cycle;Signal;HPM_P1;HPM_P2
2022/04/10 00:01:15;;;;;;;11.90;6.57;;;;;;;1.43;100.00;98035.41;5133127;27;20051;-63
2022/04/10 00:03:41;;;;;;;21.52;8.07;;;;;;;1.42;100.00;98029.22;5133341;27;20509;-63
2022/04/10 00:06:08;;;;;;;11.32;6.50;;;;;;;1.37;100.00;98021.34;5133402;27;20498;-63
2022/04/10 00:08:34;;;;;;;10.65;7.15;;;;;;;1.36;100.00;98017.03;5133022;27;20051;-63
2022/04/10 00:11:00;;;;;;;22.15;8.02;;;;;;;1.27;100.00;98019.06;5132820;28;20055;-64
2022/04/10 00:13:26;;;;;;;13.88;6.90;;;;;;;1.33;100.00;98014.22;5132957;27;20544;-63
2022/04/10 00:15:53;;;;;;;10.40;6.72;;;;;;;1.23;100.00;98012.72;5132751;27;20055;-63
2022/04/10 00:18:19;;;;;;;12.52;6.35;;;;;;;1.19;100.00;98025.31;5132810;27;20047;-63
2022/04/10 00:20:45;;;;;;;15.80;7.97;;;;;;;1.17;100.00;98016.75;5132852;27;20043;-63
2022/04/10 00:23:12;;;;;;;17.00;7.25;;;;;;;1.05;100.00;98012.09;5132729;28;20058;-62
2022/04/10 00:25:38;;;;;;;12.15;7.00;;;;;;;1.07;100.00;98019.88;5133030;27;20489;-63
2022/04/10 00:28:04;;;;;;;11.63;7.45;;;;;;;1.00;100.00;98024.97;5132719;27;20054;-63
2022/04/10 00:30:32;;;;;;;16.05;7.78;;;;;;;0.98;100.00;98022.63;5132729;27;20047;-63
2022/04/10 00:32:59;;;;;;;13.57;8.23;;;;;;;0.87;100.00;98018.75;5132565;28;20047;-63
2022/04/10 00:35:25;;;;;;;14.52;8.60;;;;;;;0.87;100.00;98016.03;5132725;27;20047;-63
2022/04/10 00:37:51;;;;;;;14.07;8.50;;;;;;;0.82;100.00;98018.94;5132547;28;20566;-63
2022/04/10 00:40:17;;;;;;;26.75;10.32;;;;;;;0.75;100.00;98021.38;5132843;27;20512;-63
2022/04/10 00:42:48;;;;;;;15.55;8.90;;;;;;;0.74;100.00;98019.78;5131592;27;20051;-62
2022/04/10 00:45:16;;;;;;;22.38;9.98;;;;;;;0.67;100.00;98020.31;5132206;28;20043;-63
2022/04/10 00:47:44;;;;;;;20.40;10.20;;;;;;;0.67;100.00;98031.88;5132317;28;20080;-63
2022/04/10 00:50:13;;;;;;;18.00;9.88;;;;;;;0.64;100.00;98031.75;5132412;28;20398;-63
2022/04/10 00:52:41;;;;;;;17.00;10.65;;;;;;;0.61;100.00;98035.09;5132421;27;20047;-63
2022/04/10 00:55:08;;;;;;;18.20;10.93;;;;;;;0.63;100.00;98032.84;5132169;27;20357;-63
2022/04/10 00:57:35;;;;;;;20.23;10.38;;;;;;;0.61;100.00;98041.28;5132611;28;20047;-63
2022/04/10 01:00:01;;;;;;;25.60;10.77;;;;;;;0.66;100.00;98048.38;5132475;27;20053;-63
2022/04/10 01:02:28;;;;;;;13.75;9.93;;;;;;;0.54;100.00;98035.63;5132366;27;20058;-62
2022/04/10 01:04:54;;;;;;;23.48;12.50;;;;;;;0.58;100.00;98044.63;5131998;28;20058;-63
2022/04/10 01:07:21;;;;;;;37.97;21.15;;;;;;;0.53;100.00;98052.88;5132063;27;20059;-63
2022/04/10 01:09:47;;;;;;;39.95;21.45;;;;;;;0.51;100.00;98047.03;5131974;27;20047;-63
2022/04/10 01:12:13;;;;;;;93.30;41.83;;;;;;;0.44;100.00;98038.69;5131952;27;20047;-62
2022/04/10 01:14:40;;;;;;;30.48;17.13;;;;;;;0.40;100.00;98052.03;5131807;27;20497;-62
2022/04/10 01:17:07;;;;;;;65.55;35.13;;;;;;;0.42;100.00;98043.59;5131887;28;20059;-63
2022/04/10 01:19:34;;;;;;;23.55;11.60;;;;;;;0.38;100.00;98046.16;5132089;27;20107;-63
2022/04/10 01:22:05;;;;;;;24.42;12.05;;;;;;;0.42;100.00;98041.69;5131901;28;20055;-63
2022/04/10 01:24:34;;;;;;;23.83;10.52;;;;;;;0.34;100.00;98039.84;5131982;27;20546;-63
2022/04/10 01:27:02;;;;;;;21.15;11.52;;;;;;;0.35;100.00;98030.63;5131569;28;20054;-63
2022/04/10 01:29:29;;;;;;;18.23;11.15;;;;;;;0.35;100.00;98030.63;5131859;28;20405;-63
2022/04/10 01:31:56;;;;;;;19.33;10.75;;;;;;;0.33;100.00;98040.16;5131531;27;20077;-63
2022/04/10 01:34:23;;;;;;;17.10;10.50;;;;;;;0.36;100.00;98042.97;5131687;27;20047;-63
2022/04/10 01:36:49;;;;;;;20.45;10.65;;;;;;;0.28;100.00;98043.84;5131666;27;20058;-64
2022/04/10 01:39:16;;;;;;;20.45;10.80;;;;;;;0.30;100.00;98044.31;5131459;27;20501;-62
2022/04/10 01:41:44;;;;;;;18.95;11.43;;;;;;;0.24;100.00;98042.91;5131476;27;20138;-62
2022/04/10 01:44:10;;;;;;;21.15;10.55;;;;;;;0.23;100.00;98047.50;5131472;28;20050;-63
2022/04/10 01:46:37;;;;;;;17.52;10.55;;;;;;;0.20;100.00;98050.84;5131568;27;20099;-63
2022/04/10 01:49:05;;;;;;;19.92;9.80;;;;;;;0.11;100.00;98058.16;5131606;28;20438;-63
2022/04/10 01:51:32;;;;;;;21.17;10.93;;;;;;;0.13;100.00;98063.22;5131697;27;20125;-63
2022/04/10 01:53:58;;;;;;;23.05;11.40;;;;;;;0.08;100.00;98063.41;5131006;27;20050;-63
2022/04/10 01:56:25;;;;;;;23.23;11.80;;;;;;;0.08;100.00;98071.50;5131092;27;20047;-63
2022/04/10 01:58:52;;;;;;;22.27;11.15;;;;;;;0.03;100.00;98063.56;5131379;28;20051;-63
2022/04/10 02:01:20;;;;;;;19.73;10.50;;;;;;;-0.01;100.00;98075.00;5131393;27;20058;-63
2022/04/10 02:03:47;;;;;;;33.05;12.27;;;;;;;-0.01;100.00;98076.91;5131012;28;20524;-62
2022/04/10 02:06:14;;;;;;;19.63;9.93;;;;;;;-0.09;100.00;98070.44;5131119;28;20051;-63
2022/04/10 02:08:41;;;;;;;21.77;11.43;;;;;;;-0.03;100.00;98084.53;5131174;27;20670;-63
2022/04/10 02:11:11;;;;;;;24.98;11.68;;;;;;;-0.14;100.00;98078.69;5131315;27;20075;-63
2022/04/10 02:13:37;;;;;;;38.90;13.55;;;;;;;-0.11;100.00;98078.03;5131036;27;20054;-63
2022/04/10 02:16:05;;;;;;;34.75;13.75;;;;;;;-0.14;100.00;98065.22;5131183;27;20099;-63
2022/04/10 02:18:31;;;;;;;28.33;12.60;;;;;;;-0.12;100.00;98070.28;5131048;27;20409;-62
2022/04/10 02:20:57;;;;;;;22.63;11.38;;;;;;;-0.18;100.00;98064.28;5130896;28;20051;-62
2022/04/10 02:23:25;;;;;;;29.33;11.60;;;;;;;-0.20;100.00;98061.13;5131135;28;20043;-63
2022/04/10 02:25:51;;;;;;;24.95;12.32;;;;;;;-0.27;100.00;98064.31;5130805;28;20051;-63
2022/04/10 02:28:17;;;;;;;21.42;11.43;;;;;;;-0.26;100.00;98062.41;5130888;27;20058;-63
2022/04/10 02:30:43;;;;;;;19.73;11.38;;;;;;;-0.25;100.00;98061.28;5130665;27;20557;-63
2022/04/10 02:33:10;;;;;;;24.23;11.73;;;;;;;-0.30;100.00;98064.94;5130765;28;20426;-62
2022/04/10 02:35:37;;;;;;;30.90;12.77;;;;;;;-0.30;100.00;98066.81;5130630;27;20047;-63
2022/04/10 02:38:03;;;;;;;20.92;11.43;;;;;;;-0.34;100.00;98065.88;5130987;27;20463;-63
2022/04/10 02:40:29;;;;;;;20.88;12.23;;;;;;;-0.32;100.00;98067.16;5131227;27;20066;-62
2022/04/10 02:42:55;;;;;;;26.15;11.55;;;;;;;-0.33;100.00;98067.50;5131091;28;20051;-62
2022/04/10 02:45:21;;;;;;;21.05;11.98;;;;;;;-0.30;100.00;98075.72;5130864;27;20062;-62
2022/04/10 02:47:48;;;;;;;29.83;14.80;;;;;;;-0.36;100.00;98073.50;5130396;28;20055;-63
2022/04/10 02:50:15;;;;;;;28.50;14.10;;;;;;;-0.37;100.00;98070.00;5130533;27;20055;-62
2022/04/10 02:52:41;;;;;;;24.13;14.00;;;;;;;-0.38;100.00;98075.72;5130613;28;20054;-62
2022/04/10 02:55:08;;;;;;;25.65;14.88;;;;;;;-0.40;100.00;98072.53;5130212;28;20055;-63
2022/04/10 02:57:34;;;;;;;30.83;14.68;;;;;;;-0.33;100.00;98070.97;5130476;28;20055;-63
2022/04/10 03:00:00;;;;;;;27.27;12.35;;;;;;;-0.39;100.00;98072.25;5130395;27;20054;-63
2022/04/10 03:02:27;;;;;;;23.65;11.52;;;;;;;-0.37;100.00;98085.38;5130222;27;20088;-62
2022/04/10 03:04:53;;;;;;;27.67;12.00;;;;;;;-0.45;100.00;98084.28;5130486;27;20084;-63
2022/04/10 03:07:20;;;;;;;25.38;13.38;;;;;;;-0.40;100.00;98080.63;5133935;28;20497;-63
2022/04/10 03:09:47;;;;;;;15.90;10.40;;;;;;;-0.47;100.00;98086.50;5134180;27;20055;-63
2022/04/10 03:12:13;;;;;;;22.52;11.52;;;;;;;-0.48;100.00;98091.09;5133965;27;20051;-62
2022/04/10 03:14:39;;;;;;;19.08;11.68;;;;;;;-0.45;100.00;98092.38;5133979;28;20046;-63
2022/04/10 03:17:05;;;;;;;21.25;11.45;;;;;;;-0.44;100.00;98079.69;5133975;28;20108;-62
2022/04/10 03:19:32;;;;;;;21.10;12.20;;;;;;;-0.44;100.00;98087.75;5133705;28;20051;-63
2022/04/10 03:21:58;;;;;;;32.45;12.93;;;;;;;-0.46;100.00;98090.00;5133998;28;20059;-62
2022/04/10 03:24:25;;;;;;;23.48;12.57;;;;;;;-0.43;100.00;98094.72;5133689;27;20520;-62
2022/04/10 03:26:51;;;;;;;21.92;12.13;;;;;;;-0.50;100.00;98109.47;5133697;27;20043;-63
2022/04/10 03:29:18;;;;;;;32.55;15.30;;;;;;;-0.45;100.00;98110.44;5133544;27;20058;-63
2022/04/10 03:31:44;;;;;;;28.25;14.52;;;;;;;-0.49;100.00;98118.34;5133585;28;20571;-63
2022/04/10 03:34:10;;;;;;;53.70;18.77;;;;;;;-0.45;100.00;98108.53;5133576;27;20056;-63
2022/04/10 03:36:36;;;;;;;28.60;15.70;;;;;;;-0.44;100.00;98106.63;5133546;28;20051;-63
2022/04/10 03:39:02;;;;;;;30.60;14.63;;;;;;;-0.46;100.00;98120.41;5133700;28;20058;-63
2022/04/10 03:41:29;;;;;;;29.75;15.32;;;;;;;-0.44;100.00;98112.00;5133379;28;20047;-63
2022/04/10 03:43:55;;;;;;;36.28;13.95;;;;;;;-0.38;100.00;98105.34;5133919;27;20073;-62
2022/04/10 03:46:22;;;;;;;26.73;13.93;;;;;;;-0.25;100.00;98112.47;5133298;27;20055;-63
2022/04/10 03:48:48;;;;;;;30.33;14.68;;;;;;;-0.17;100.00;98108.94;5133560;27;20100;-63
2022/04/10 03:51:14;;;;;;;31.13;12.18;;;;;;;0.02;100.00;98110.50;5133322;28;20429;-63
2022/04/10 03:53:40;;;;;;;19.48;10.80;;;;;;;0.04;100.00;98116.38;5133603;27;20103;-63
2022/04/10 03:56:06;;;;;;;18.45;10.73;;;;;;;0.12;100.00;98119.03;5132796;28;20566;-63
2022/04/10 03:58:33;;;;;;;24.48;12.48;;;;;;;0.27;100.00;98122.31;5133694;27;20761;-63
2022/04/10 04:00:59;;;;;;;25.58;12.10;;;;;;;0.42;100.00;98125.28;5133213;27;20051;-63
2022/04/10 04:03:26;;;;;;;22.65;11.40;;;;;;;1.00;100.00;98112.16;5133783;28;20062;-63
2022/04/10 04:05:53;;;;;;;20.30;9.98;;;;;;;1.87;100.00;98117.66;5133125;27;20055;-63
2022/04/10 04:08:19;;;;;;;15.30;9.45;;;;;;;2.68;100.00;98115.31;5133258;27;20428;-63
2022/04/10 04:10:45;;;;;;;12.35;8.60;;;;;;;3.29;100.00;98139.63;5133179;27;20054;-63
2022/04/10 04:13:11;;;;;;;14.73;9.68;;;;;;;3.62;100.00;98175.78;5132861;28;20050;-63
2022/04/10 04:15:38;;;;;;;16.75;8.82;;;;;;;3.99;100.00;98234.19;5133131;28;20055;-63
2022/04/10 04:18:05;;;;;;;13.43;7.95;;;;;;;4.48;100.00;98326.28;5132060;27;20051;-63
2022/04/10 04:20:31;;;;;;;11.85;8.18;;;;;;;5.08;100.00;98410.56;5133013;27;20047;-64
2022/04/10 04:22:57;;;;;;;10.48;7.70;;;;;;;5.44;100.00;98542.00;5132761;28;20047;-63
2022/04/10 04:25:24;;;;;;;15.82;8.32;;;;;;;5.87;100.00;98592.94;5132892;27;20051;-64
2022/04/10 04:27:50;;;;;;;17.02;8.45;;;;;;;6.15;100.00;98566.84;5132566;27;20527;-63
2022/04/10 04:30:16;;;;;;;12.27;7.90;;;;;;;6.48;100.00;98422.19;5133022;28;20051;-63
2022/04/10 04:32:43;;;;;;;23.77;10.02;;;;;;;6.63;100.00;98308.91;5132781;27;20062;-63
2022/04/10 04:35:10;;;;;;;13.95;8.15;;;;;;;6.76;100.00;98119.63;5132515;27;20065;-64
2022/04/10 04:37:40;;;;;;;15.85;9.20;;;;;;;7.12;100.00;98150.16;5132760;28;20143;-63
2022/04/10 04:40:07;;;;;;;15.63;9.68;;;;;;;7.35;100.00;97882.94;5132615;27;20055;-63
2022/04/10 04:42:33;;;;;;;21.48;9.63;;;;;;;7.66;100.00;97887.09;5132702;28;20052;-63
2022/04/10 04:44:59;;;;;;;14.40;9.52;;;;;;;7.78;100.00;97661.19;5132324;27;20053;-64
2022/04/10 04:47:26;;;;;;;11.48;8.93;;;;;;;8.28;100.00;97676.19;5132478;27;20047;-63
2022/04/10 04:49:54;;;;;;;12.75;7.88;;;;;;;8.34;100.00;97483.53;5132194;28;20178;-63
2022/04/10 04:52:20;;;;;;;17.77;10.38;;;;;;;8.79;100.00;97513.94;5132819;27;20043;-64
2022/04/10 04:54:47;;;;;;;18.38;9.60;;;;;;;8.81;100.00;97362.09;5131726;27;20429;-64
2022/04/10 04:57:13;;;;;;;15.93;9.35;;;;;;;9.20;100.00;97383.00;5132040;28;20054;-64
2022/04/10 04:59:39;;;;;;;13.57;7.97;;;;;;;9.40;100.00;97306.69;5132104;27;20051;-64
2022/04/10 05:02:06;;;;;;;14.35;8.10;;;;;;;9.82;100.00;97332.91;5132401;28;20057;-63
2022/04/10 05:04:32;;;;;;;17.10;8.18;;;;;;;9.93;100.00;97289.03;5132234;28;20414;-64
2022/04/10 05:06:59;;;;;;;11.35;8.38;;;;;;;10.36;100.00;97294.88;5132166;28;20100;-63
2022/04/10 05:09:25;;;;;;;14.05;8.27;;;;;;;10.68;100.00;97271.78;5132326;27;20047;-64
2022/04/10 05:11:51;;;;;;;16.50;8.43;;;;;;;10.97;100.00;97274.16;5131948;27;20079;-64
2022/04/10 05:14:17;;;;;;;10.70;7.28;;;;;;;10.91;100.00;97297.72;5132137;27;20095;-63
2022/04/10 05:16:43;;;;;;;10.43;7.32;;;;;;;10.92;100.00;97280.06;5131877;27;20054;-64
2022/04/10 05:19:10;;;;;;;8.20;5.00;;;;;;;10.99;100.00;97326.59;5132059;27;20059;-65
2022/04/10 05:21:36;;;;;;;5.50;4.30;;;;;;;11.07;100.00;97325.31;5131737;28;20077;-64
2022/04/10 05:24:03;;;;;;;6.45;4.38;;;;;;;11.50;100.00;97327.44;5131839;27;20051;-64
2022/04/10 05:26:29;;;;;;;6.72;4.47;;;;;;;11.39;100.00;97332.28;5131675;28;20055;-64
2022/04/10 05:28:56;;;;;;;10.50;4.10;;;;;;;11.96;100.00;97336.91;5131251;27;20078;-64
2022/04/10 05:31:22;;;;;;;9.82;4.78;;;;;;;12.04;100.00;97363.06;5132012;27;20069;-64
2022/04/10 05:33:48;;;;;;;8.52;4.20;;;;;;;12.42;100.00;97374.56;5131717;28;20051;-64
2022/04/10 05:36:14;;;;;;;10.93;3.83;;;;;;;12.49;100.00;97409.38;5131840;27;20046;-64
2022/04/10 05:38:40;;;;;;;7.25;3.63;;;;;;;12.79;100.00;97402.16;5131563;28;20062;-64
2022/04/10 05:41:07;;;;;;;4.57;3.80;;;;;;;12.91;100.00;97449.06;5131905;28;20506;-64
2022/04/10 05:43:33;;;;;;;4.60;3.13;;;;;;;13.02;100.00;97437.06;5131409;27;20057;-64
2022/04/10 05:46:01;;;;;;;8.38;4.00;;;;;;;13.16;100.00;97467.03;5131981;28;20572;-64
2022/04/10 05:48:27;;;;;;;10.68;4.47;;;;;;;13.12;100.00;97445.09;5131487;28;20062;-63
2022/04/10 05:50:53;;;;;;;9.32;3.38;;;;;;;13.43;100.00;97444.94;5131857;27;20047;-64
2022/04/10 05:53:19;;;;;;;9.07;3.30;;;;;;;13.55;100.00;97465.50;5131161;27;20059;-63
2022/04/10 05:55:45;;;;;;;8.32;3.53;;;;;;;13.42;100.00;97490.16;5131264;27;20123;-64
2022/04/10 05:58:12;;;;;;;7.35;3.88;;;;;;;13.81;100.00;97474.78;5131314;28;20505;-64
2022/04/10 06:00:38;;;;;;;8.27;3.92;;;;;;;13.94;100.00;97496.94;5131211;27;20528;-64
2022/04/10 06:03:05;;;;;;;8.38;3.60;;;;;;;14.03;100.00;97464.84;5131322;27;20100;-64
2022/04/10 06:05:31;;;;;;;6.28;3.85;;;;;;;14.06;100.00;97535.63;5131110;28;20134;-64
2022/04/10 06:07:57;;;;;;;7.15;3.60;;;;;;;14.51;100.00;97518.44;5131267;27;20051;-64
2022/04/10 06:10:24;;;;;;;6.35;4.07;;;;;;;14.72;100.00;97591.63;5131065;28;20516;-64
2022/04/10 06:12:50;;;;;;;9.07;3.90;;;;;;;14.47;100.00;97603.22;5131169;28;20055;-64
2022/04/10 06:15:18;;;;;;;8.00;4.28;;;;;;;14.78;100.00;97536.72;5131005;27;20501;-63
2022/04/10 06:17:44;;;;;;;7.75;4.55;;;;;;;15.00;100.00;97570.06;5130794;27;20096;-64
2022/04/10 06:20:11;;;;;;;8.55;5.05;;;;;;;15.15;100.00;97603.59;5130898;27;20054;-64
2022/04/10 06:22:37;;;;;;;9.50;4.32;;;;;;;15.45;100.00;97600.41;5130856;28;20051;-63
2022/04/10 06:25:05;;;;;;;11.35;4.60;;;;;;;15.92;100.00;97641.38;5130675;27;20043;-64
2022/04/10 06:27:31;;;;;;;11.73;4.50;;;;;;;16.11;100.00;97639.69;5130748;28;20050;-64
2022/04/10 06:29:57;;;;;;;11.40;5.38;;;;;;;16.26;100.00;97664.16;5131023;27;20047;-64
2022/04/10 06:32:24;;;;;;;9.48;4.40;;;;;;;15.91;100.00;97710.94;5130702;28;20051;-64
2022/04/10 06:34:50;;;;;;;10.95;4.10;;;;;;;16.20;100.00;97680.53;5131134;27;20409;-64
2022/04/10 06:37:16;;;;;;;12.80;4.68;;;;;;;16.33;100.00;97717.28;5130558;27;20061;-64
2022/04/10 06:39:42;;;;;;;8.18;4.70;;;;;;;15.81;100.00;97786.59;5130152;27;20429;-64
2022/04/10 06:42:09;;;;;;;7.47;4.43;;;;;;;15.72;100.00;97776.91;5130628;27;20047;-63
2022/04/10 06:44:35;;;;;;;7.38;3.95;;;;;;;15.77;100.00;97770.13;5130521;27;20047;-63
2022/04/10 06:47:02;;;;;;;7.15;3.92;;;;;;;16.31;100.00;97750.13;5130402;28;20100;-64
2022/04/10 06:49:29;;;;;;;9.65;3.60;;;;;;;16.24;100.00;97767.69;5130386;27;20054;-64
2022/04/10 06:51:55;;;;;;;7.22;4.13;;;;;;;16.52;100.00;97783.91;5130403;27;20080;-64
2022/04/10 06:54:21;;;;;;;7.88;3.63;;;;;;;16.67;100.00;97785.84;5130384;28;20520;-63
2022/04/10 06:56:47;;;;;;;9.02;5.13;;;;;;;16.63;100.00;97773.34;5130200;28;20463;-64
2022/04/10 06:59:13;;;;;;;5.38;3.92;;;;;;;16.61;100.00;97776.53;5130504;28;20055;-63
2022/04/10 07:01:40;;;;;;;8.10;4.45;;;;;;;16.27;100.00;97846.22;5130568;27;20047;-64
2022/04/10 07:04:06;;;;;;;9.63;4.03;;;;;;;14.52;100.00;97864.69;5130123;28;20059;-63
2022/04/10 07:06:33;;;;;;;8.25;4.60;;;;;;;13.94;100.00;97786.97;5130646;28;20501;-63
2022/04/10 07:08:59;;;;;;;10.50;4.07;;;;;;;13.97;100.00;97774.34;5130147;28;20066;-63
2022/04/10 07:11:25;;;;;;;5.57;3.45;;;;;;;13.70;100.00;97761.44;5130489;27;20047;-63
2022/04/10 07:13:51;;;;;;;7.45;3.25;;;;;;;13.99;100.00;97725.09;5130313;27;20051;-63
2022/04/10 07:16:18;;;;;;;6.80;4.20;;;;;;;14.56;100.00;97718.44;5130465;27;20550;-63
2022/04/10 07:18:44;;;;;;;9.07;3.38;;;;;;;15.11;100.00;97763.75;5130327;27;20114;-63
2022/04/10 07:21:10;;;;;;;6.63;4.45;;;;;;;15.59;100.00;97718.03;5130472;27;20394;-63
2022/04/10 07:23:43;;;;;;;5.95;3.00;;;;;;;15.96;100.00;97758.16;5130275;27;20047;-63
2022/04/10 07:26:10;;;;;;;5.40;3.92;;;;;;;16.18;100.00;97763.13;5130234;28;20433;-63
2022/04/10 07:28:37;;;;;;;6.75;3.58;;;;;;;16.55;100.00;97827.31;5130194;28;20062;-63
2022/04/10 07:31:05;;;;;;;10.10;4.82;;;;;;;16.61;100.00;97833.84;5130129;28;20044;-64
2022/04/10 07:33:31;;;;;;;8.25;3.50;;;;;;;16.22;100.00;97828.16;5129981;28;20501;-63
2022/04/10 07:35:58;;;;;;;7.13;4.05;;;;;;;15.82;100.00;97808.25;5129809;28;20057;-63
2022/04/10 07:38:24;;;;;;;4.85;2.80;;;;;;;15.52;100.00;97850.78;5130096;27;20051;-64
2022/04/10 07:40:51;;;;;;;9.32;4.78;;;;;;;15.22;100.00;97847.09;5129919;28;20055;-63
2022/04/10 07:43:18;;;;;;;4.45;2.88;;;;;;;15.48;100.00;97856.38;5130031;28;20471;-63
2022/04/10 07:48:28;;;;;;;;;;;;;;;16.47;100.00;97824.75;5130222;28;20086;-63
2022/04/10 07:50:57;;;;;;;8.45;4.30;;;;;;;16.51;100.00;97821.09;5130028;27;19923;-63
2022/04/10 07:53:23;;;;;;;10.30;3.58;;;;;;;16.20;100.00;97813.25;5133673;27;20469;-63
2022/04/10 07:55:49;;;;;;;10.38;4.50;;;;;;;16.13;100.00;97803.16;5133334;28;20070;-63
2022/04/10 07:58:16;;;;;;;7.50;4.47;;;;;;;16.34;100.00;97793.50;5133082;27;20429;-63
2022/04/10 08:00:42;;;;;;;8.23;3.25;;;;;;;16.28;100.00;97833.16;5133516;27;20501;-63
2022/04/10 08:03:08;;;;;;;9.23;3.67;;;;;;;16.59;100.00;97809.38;5133017;28;20051;-63
2022/04/10 08:05:34;;;;;;;5.25;3.70;;;;;;;16.91;100.00;97847.25;5133240;27;20047;-64
2022/04/10 08:08:01;;;;;;;7.22;3.97;;;;;;;16.87;100.00;97862.41;5132927;27;20051;-63
2022/04/10 08:10:29;;;;;;;8.75;4.05;;;;;;;17.17;100.00;97834.25;5133088;27;20051;-63
2022/04/10 08:12:55;;;;;;;5.68;3.75;;;;;;;17.55;100.00;97866.72;5132985;27;20085;-63
2022/04/10 08:15:22;;;;;;;7.50;3.75;;;;;;;17.11;100.00;97894.16;5132825;28;20391;-63
2022/04/10 08:17:48;;;;;;;4.05;3.20;;;;;;;16.78;98.85;97896.25;5132987;27;20501;-63
2022/04/10 08:20:16;;;;;;;4.70;3.45;;;;;;;16.62;100.00;97883.22;5132935;28;20047;-63
2022/04/10 08:22:47;;;;;;;6.80;3.80;;;;;;;16.65;100.00;97862.19;5132992;27;20474;-63
2022/04/10 08:25:16;;;;;;;5.10;3.50;;;;;;;16.71;100.00;97885.34;5132922;27;20569;-64
2022/04/10 08:27:42;;;;;;;4.57;2.92;;;;;;;16.39;100.00;97862.13;5133118;27;20046;-63
2022/04/10 08:30:09;;;;;;;6.78;4.10;;;;;;;16.37;100.00;97842.41;5132960;28;20408;-63
2022/04/10 08:32:37;;;;;;;3.55;2.90;;;;;;;16.53;100.00;97838.81;5133081;27;20399;-63
2022/04/10 08:35:04;;;;;;;7.25;3.53;;;;;;;16.81;100.00;97819.88;5132763;28;20062;-63
2022/04/10 08:37:30;;;;;;;6.97;3.38;;;;;;;17.11;100.00;97824.91;5132926;28;20475;-64
2022/04/10 08:39:56;;;;;;;5.03;3.00;;;;;;;16.36;100.00;97874.03;5132745;28;20054;-63
2022/04/10 08:42:22;;;;;;;7.57;4.00;;;;;;;15.26;100.00;97869.91;5133198;28;20047;-63
2022/04/10 08:44:49;;;;;;;7.88;4.07;;;;;;;15.46;100.00;97845.00;5132503;28;20055;-63
2022/04/10 08:47:20;;;;;;;6.50;3.55;;;;;;;14.64;100.00;97862.53;5132520;28;20062;-63
2022/04/10 08:49:48;;;;;;;5.25;2.20;;;;;;;13.72;100.00;97821.59;5132452;27;20085;-63
2022/04/10 08:52:15;;;;;;;6.57;2.58;;;;;;;13.58;100.00;97812.34;5132306;27;20069;-63
2022/04/10 08:54:43;;;;;;;3.25;2.45;;;;;;;13.89;100.00;97784.69;5132751;28;20047;-63
2022/04/10 08:57:09;;;;;;;3.25;2.10;;;;;;;14.03;100.00;97825.03;5131797;28;20063;-64
2022/04/10 08:59:36;;;;;;;4.25;2.10;;;;;;;13.72;100.00;97805.84;5132506;27;20043;-62
2022/04/10 09:02:03;;;;;;;5.15;2.72;;;;;;;13.75;100.00;97802.25;5132102;28;20051;-62
2022/04/10 09:04:31;;;;;;;6.00;3.38;;;;;;;14.33;100.00;97779.97;5131618;27;20437;-63
2022/04/10 09:06:58;;;;;;;5.68;2.35;;;;;;;14.90;100.00;97798.13;5132043;27;20047;-63
2022/04/10 09:09:25;;;;;;;2.60;2.40;;;;;;;14.43;100.00;97855.38;5131834;28;20055;-63
2022/04/10 09:11:52;;;;;;;7.15;3.15;;;;;;;14.20;100.00;97812.88;5132299;27;20185;-63
2022/04/10 09:14:21;;;;;;;4.78;3.00;;;;;;;13.73;100.00;97817.63;5131991;28;20061;-62
2022/04/10 09:17:07;;;;;;;5.47;3.30;;;;;;;14.17;100.00;97815.72;5132343;27;20062;-63
2022/04/10 09:19:35;;;;;;;2.58;2.30;;;;;;;14.87;100.00;97842.38;5131551;28;20509;-63
2022/04/10 09:22:24;;;;;;;4.88;2.88;;;;;;;15.16;100.00;97864.59;5132161;27;20043;-63
2022/04/10 09:25:05;;;;;;;8.05;2.88;;;;;;;15.30;100.00;97869.84;5131889;27;20051;-63
2022/04/10 09:27:32;;;;;;;10.23;3.30;;;;;;;15.47;100.00;97884.44;5131778;28;20050;-63
2022/04/10 09:30:00;;;;;;;3.33;2.60;;;;;;;15.71;100.00;97876.81;5132154;28;20051;-63
2022/04/10 09:32:39;;;;;;;4.53;2.72;;;;;;;16.20;100.00;97879.59;5132000;27;20517;-63
2022/04/10 09:35:07;;;;;;;12.48;4.18;;;;;;;15.45;100.00;97873.03;5131760;27;20047;-63
2022/04/10 09:37:42;;;;;;;9.32;3.00;;;;;;;14.53;100.00;97863.50;5131785;28;20051;-63
2022/04/10 09:40:29;;;;;;;4.78;3.35;;;;;;;13.55;100.00;97861.97;5131698;27;20061;-62
2022/04/10 09:43:00;;;;;;;4.82;2.33;;;;;;;13.29;100.00;97813.97;5132075;27;20054;-63
2022/04/10 09:45:28;;;;;;;4.05;2.28;;;;;;;12.97;100.00;97836.44;5131538;28;20425;-63
2022/04/10 09:47:54;;;;;;;5.53;2.40;;;;;;;12.63;100.00;97799.53;5131721;27;20098;-62
2022/04/10 09:50:29;;;;;;;5.15;2.88;;;;;;;12.44;100.00;97800.16;5131487;28;20047;-63
2022/04/10 09:52:57;;;;;;;3.75;2.20;;;;;;;12.13;100.00;97796.53;5131744;28;20477;-63
2022/04/10 09:55:37;;;;;;;5.03;2.38;;;;;;;12.06;100.00;97789.16;5131045;28;20043;-62
2022/04/10 09:58:07;;;;;;;4.57;2.20;;;;;;;12.51;100.00;97775.31;5131428;27;20138;-63
2022/04/10 10:00:36;;;;;;;5.32;2.47;;;;;;;13.08;100.00;97790.28;5131346;27;20043;-63
2022/04/10 10:03:03;;;;;;;4.82;2.55;;;;;;;13.74;100.00;97808.19;5131372;27;20494;-63
2022/04/10 10:05:31;;;;;;;6.25;2.20;;;;;;;14.22;100.00;97826.22;5131357;27;20062;-63
2022/04/10 10:07:59;;;;;;;3.92;2.13;;;;;;;14.33;100.00;97887.47;5131230;28;20051;-63
2022/04/10 10:10:29;;;;;;;7.63;2.42;;;;;;;14.48;100.00;97886.00;5131167;27;20082;-63
2022/04/10 10:12:56;;;;;;;7.68;3.08;;;;;;;14.47;100.00;97903.75;5131225;28;20043;-63
2022/04/10 10:15:23;;;;;;;4.78;2.45;;;;;;;14.28;100.00;97910.78;5129867;27;20100;-62
2022/04/10 10:17:51;;;;;;;3.13;2.13;;;;;;;14.25;100.00;97908.88;5130923;28;20059;-63
2022/04/10 10:20:20;;;;;;;5.20;2.40;;;;;;;14.01;100.00;97913.59;5131317;27;20051;-62
2022/04/10 10:22:46;;;;;;;5.82;2.30;;;;;;;13.36;100.00;97890.94;5131005;27;20051;-62
2022/04/10 10:25:18;;;;;;;4.70;2.72;;;;;;;13.11;100.00;97861.00;5131037;27;20047;-63
2022/04/10 10:28:13;;;;;;;4.43;2.50;;;;;;;13.39;100.00;97868.09;5130952;28;20509;-63
2022/04/10 10:30:49;;;;;;;4.32;2.17;;;;;;;13.53;100.00;97878.94;5128254;28;20578;-63
2022/04/10 10:33:18;;;;;;;5.50;2.50;;;;;;;13.62;100.00;97873.66;5130863;28;20517;-63
2022/04/10 10:35:49;;;;;;;7.90;1.80;;;;;;;13.43;100.00;97896.38;5130709;27;20050;-63
2022/04/10 10:38:20;;;;;;;5.53;2.60;;;;;;;12.74;100.00;97912.13;5131050;27;20051;-62
2022/04/10 10:40:47;;;;;;;5.15;2.17;;;;;;;12.70;100.00;97890.16;5130674;28;20054;-62
2022/04/10 10:43:18;;;;;;;4.60;2.38;;;;;;;13.02;100.00;97913.75;5131111;27;20059;-63
2022/04/10 10:45:45;;;;;;;2.85;1.83;;;;;;;13.54;100.00;97893.47;5131062;28;20104;-63
2022/04/10 10:48:44;;;;;;;3.92;2.13;;;;;;;13.97;100.00;97909.34;5130429;27;20050;-63
2022/04/10 10:51:41;;;;;;;5.15;2.00;;;;;;;14.21;100.00;97930.19;5130715;28;20057;-62
2022/04/10 10:54:11;;;;;;;34.00;4.22;;;;;;;14.21;100.00;97946.75;5129928;28;20052;-63
2022/04/10 10:56:39;;;;;;;4.43;2.42;;;;;;;14.34;100.00;97950.47;5130159;27;20051;-62
2022/04/10 10:59:24;;;;;;;3.83;2.42;;;;;;;14.25;100.00;97946.69;5130346;27;20051;-63
2022/04/10 11:01:55;;;;;;;4.25;2.13;;;;;;;14.06;100.00;97945.41;5130290;28;20053;-63
2022/04/10 11:04:25;;;;;;;4.40;2.05;;;;;;;13.53;100.00;97957.97;5130386;27;20076;-63
2022/04/10 11:06:51;;;;;;;4.80;2.58;;;;;;;13.42;100.00;97914.06;5130276;28;20043;-63
2022/04/10 11:09:21;;;;;;;10.35;4.75;;;;;;;13.41;100.00;97949.06;5130485;27;20085;-63
2022/04/10 11:11:49;;;;;;;7.97;1.90;;;;;;;13.50;100.00;97965.09;5130356;28;20049;-63
2022/04/10 11:14:32;;;;;;;3.00;1.90;;;;;;;13.47;100.00;97960.41;5130508;28;20119;-63
2022/04/10 11:17:15;;;;;;;4.32;2.42;;;;;;;13.33;100.00;97966.91;5130348;28;20043;-63
2022/04/10 11:19:44;;;;;;;2.92;2.15;;;;;;;12.99;100.00;97972.34;5129965;27;20058;-63
2022/04/10 11:22:14;;;;;;;3.05;1.75;;;;;;;12.88;100.00;97977.19;5130212;27;20055;-63
2022/04/10 11:24:43;;;;;;;5.88;1.67;;;;;;;12.61;97.17;97983.34;5130032;28;20070;-62
2022/04/10 11:27:13;;;;;;;5.40;1.40;;;;;;;12.44;100.00;97987.03;5132387;27;20053;-63